sensor_id;sensor_type;location;lat;lon;timestamp;P1;durP1;ratioP1;P2;durP2;ratioP2
40951;SDS011;26682;51.660;19.338;2022-10-17T00:00:31;31.88;;;25.30;;
40951;SDS011;26682;51.660;19.338;2022-10-17T00:02:37;35.67;;;24.67;;
40951;SDS011;26682;51.660;19.338;2022-10-17T00:04:23;29.25;;;23.73;;
40951;SDS011;26682;51.660;19.338;2022-10-17T00:06:10;32.67;;;24.10;;
40951;SDS011;26682;51.660;19.338;2022-10-17T00:07:57;34.00;;;26.33;;
40951;SDS011;26682;51.660;19.338;2022-10-17T00:09:43;27.00;;;24.10;;
40951;SDS011;26682;51.660;19.338;2022-10-17T00:11:29;29.50;;;24.38;;
40951;SDS011;26682;51.660;19.338;2022-10-17T00:13:15;32.28;;;24.65;;
40951;SDS011;26682;51.660;19.338;2022-10-17T00:15:02;33.75;;;25.13;;
40951;SDS011;26682;51.660;19.338;2022-10-17T00:16:51;35.67;;;25.85;;
40951;SDS011;26682;51.660;19.338;2022-10-17T00:18:37;35.53;;;26.10;;
40951;SDS011;26682;51.660;19.338;2022-10-17T00:20:23;38.22;;;26.00;;
40951;SDS011;26682;51.660;19.338;2022-10-17T00:22:09;34.13;;;25.30;;
40951;SDS011;26682;51.660;19.338;2022-10-17T00:23:56;38.58;;;25.35;;
40951;SDS011;26682;51.660;19.338;2022-10-17T00:25:43;35.25;;;24.80;;
40951;SDS011;26682;51.660;19.338;2022-10-17T00:27:29;35.35;;;25.48;;
40951;SDS011;26682;51.660;19.338;2022-10-17T00:29:14;30.30;;;25.48;;
40951;SDS011;26682;51.660;19.338;2022-10-17T00:31:01;38.50;;;26.65;;
40951;SDS011;26682;51.660;19.338;2022-10-17T00:32:50;34.92;;;26.20;;
40951;SDS011;26682;51.660;19.338;2022-10-17T00:34:37;35.83;;;25.80;;
40951;SDS011;26682;51.660;19.338;2022-10-17T00:36:23;40.40;;;26.73;;
40951;SDS011;26682;51.660;19.338;2022-10-17T00:38:29;32.65;;;27.15;;
40951;SDS011;26682;51.660;19.338;2022-10-17T00:40:14;32.85;;;26.20;;
40951;SDS011;26682;51.660;19.338;2022-10-17T00:42:00;32.20;;;25.88;;
40951;SDS011;26682;51.660;19.338;2022-10-17T00:43:55;31.95;;;26.60;;
40951;SDS011;26682;51.660;19.338;2022-10-17T00:45:45;30.70;;;25.13;;
40951;SDS011;26682;51.660;19.338;2022-10-17T00:47:31;32.17;;;25.48;;
40951;SDS011;26682;51.660;19.338;2022-10-17T00:49:19;33.35;;;25.90;;
40951;SDS011;26682;51.660;19.338;2022-10-17T00:51:08;31.75;;;26.10;;
40951;SDS011;26682;51.660;19.338;2022-10-17T00:52:54;33.45;;;26.13;;
40951;SDS011;26682;51.660;19.338;2022-10-17T00:54:47;34.83;;;27.42;;
40951;SDS011;26682;51.660;19.338;2022-10-17T00:56:38;32.90;;;26.02;;
40951;SDS011;26682;51.660;19.338;2022-10-17T00:58:24;30.48;;;27.17;;
40951;SDS011;26682;51.660;19.338;2022-10-17T01:00:11;32.08;;;26.52;;
40951;SDS011;26682;51.660;19.338;2022-10-17T01:02:00;36.67;;;27.95;;
40951;SDS011;26682;51.660;19.338;2022-10-17T01:03:57;35.55;;;27.67;;
40951;SDS011;26682;51.660;19.338;2022-10-17T01:05:43;38.88;;;28.13;;
40951;SDS011;26682;51.660;19.338;2022-10-17T01:07:31;42.47;;;28.55;;
40951;SDS011;26682;51.660;19.338;2022-10-17T01:09:17;36.45;;;26.98;;
40951;SDS011;26682;51.660;19.338;2022-10-17T01:11:12;38.05;;;27.63;;
40951;SDS011;26682;51.660;19.338;2022-10-17T01:13:22;37.08;;;26.30;;
40951;SDS011;26682;51.660;19.338;2022-10-17T01:17:57;36.50;;;26.60;;
40951;SDS011;26682;51.660;19.338;2022-10-17T01:20:07;35.95;;;26.88;;
40951;SDS011;26682;51.660;19.338;2022-10-17T01:22:25;31.38;;;26.25;;
40951;SDS011;26682;51.660;19.338;2022-10-17T01:32:26;38.45;;;28.40;;
40951;SDS011;26682;51.660;19.338;2022-10-17T01:34:21;34.28;;;26.17;;
40951;SDS011;26682;51.660;19.338;2022-10-17T01:36:25;32.90;;;26.30;;
40951;SDS011;26682;51.660;19.338;2022-10-17T01:38:26;33.35;;;25.38;;
40951;SDS011;26682;51.660;19.338;2022-10-17T01:40:45;35.88;;;26.23;;
40951;SDS011;26682;51.660;19.338;2022-10-17T01:42:38;33.72;;;26.73;;
40951;SDS011;26682;51.660;19.338;2022-10-17T01:44:33;40.90;;;27.83;;
40951;SDS011;26682;51.660;19.338;2022-10-17T01:46:35;39.92;;;27.85;;
40951;SDS011;26682;51.660;19.338;2022-10-17T01:48:24;39.88;;;27.15;;
40951;SDS011;26682;51.660;19.338;2022-10-17T01:50:16;38.38;;;27.08;;
40951;SDS011;26682;51.660;19.338;2022-10-17T01:52:32;36.83;;;26.60;;
40951;SDS011;26682;51.660;19.338;2022-10-17T01:56:31;35.53;;;26.02;;
40951;SDS011;26682;51.660;19.338;2022-10-17T01:58:21;34.92;;;26.73;;
40951;SDS011;26682;51.660;19.338;2022-10-17T02:00:13;40.35;;;27.92;;
40951;SDS011;26682;51.660;19.338;2022-10-17T02:02:02;35.58;;;26.35;;
40951;SDS011;26682;51.660;19.338;2022-10-17T02:03:52;36.10;;;27.38;;
40951;SDS011;26682;51.660;19.338;2022-10-17T02:05:40;34.80;;;27.60;;
40951;SDS011;26682;51.660;19.338;2022-10-17T02:07:28;32.05;;;25.33;;
40951;SDS011;26682;51.660;19.338;2022-10-17T02:09:24;31.58;;;25.30;;
40951;SDS011;26682;51.660;19.338;2022-10-17T02:11:21;40.13;;;28.63;;
40951;SDS011;26682;51.660;19.338;2022-10-17T02:15:30;37.15;;;27.17;;
40951;SDS011;26682;51.660;19.338;2022-10-17T02:17:47;32.88;;;25.50;;
40951;SDS011;26682;51.660;19.338;2022-10-17T02:19:54;36.55;;;26.85;;
40951;SDS011;26682;51.660;19.338;2022-10-17T02:26:31;33.05;;;26.75;;
40951;SDS011;26682;51.660;19.338;2022-10-17T02:30:38;34.33;;;26.38;;
40951;SDS011;26682;51.660;19.338;2022-10-17T02:32:42;37.53;;;27.55;;
40951;SDS011;26682;51.660;19.338;2022-10-17T02:34:43;42.65;;;29.35;;
40951;SDS011;26682;51.660;19.338;2022-10-17T02:36:38;47.55;;;28.92;;
40951;SDS011;26682;51.660;19.338;2022-10-17T02:38:29;41.53;;;26.92;;
40951;SDS011;26682;51.660;19.338;2022-10-17T02:40:17;43.03;;;27.63;;
40951;SDS011;26682;51.660;19.338;2022-10-17T02:42:06;34.40;;;26.27;;
40951;SDS011;26682;51.660;19.338;2022-10-17T02:43:55;34.35;;;25.13;;
40951;SDS011;26682;51.660;19.338;2022-10-17T02:45:43;33.70;;;24.63;;
40951;SDS011;26682;51.660;19.338;2022-10-17T02:47:39;32.33;;;25.00;;
40951;SDS011;26682;51.660;19.338;2022-10-17T02:49:28;31.00;;;24.25;;
40951;SDS011;26682;51.660;19.338;2022-10-17T02:51:27;33.75;;;24.83;;
40951;SDS011;26682;51.660;19.338;2022-10-17T02:53:31;34.92;;;26.70;;
40951;SDS011;26682;51.660;19.338;2022-10-17T02:55:32;32.45;;;24.80;;
40951;SDS011;26682;51.660;19.338;2022-10-17T02:59:16;36.97;;;26.60;;
40951;SDS011;26682;51.660;19.338;2022-10-17T03:01:06;43.17;;;27.40;;
40951;SDS011;26682;51.660;19.338;2022-10-17T03:02:52;41.67;;;27.63;;
40951;SDS011;26682;51.660;19.338;2022-10-17T03:04:45;45.35;;;31.15;;
40951;SDS011;26682;51.660;19.338;2022-10-17T03:06:31;52.22;;;32.10;;
40951;SDS011;26682;51.660;19.338;2022-10-17T03:08:19;48.75;;;28.67;;
40951;SDS011;26682;51.660;19.338;2022-10-17T03:10:05;41.97;;;28.20;;
40951;SDS011;26682;51.660;19.338;2022-10-17T03:11:51;39.47;;;25.55;;
40951;SDS011;26682;51.660;19.338;2022-10-17T03:13:37;44.58;;;28.30;;
40951;SDS011;26682;51.660;19.338;2022-10-17T03:15:23;47.17;;;28.80;;
40951;SDS011;26682;51.660;19.338;2022-10-17T03:17:09;61.80;;;36.10;;
40951;SDS011;26682;51.660;19.338;2022-10-17T03:18:55;53.88;;;33.97;;
40951;SDS011;26682;51.660;19.338;2022-10-17T03:20:41;50.90;;;33.55;;
40951;SDS011;26682;51.660;19.338;2022-10-17T03:22:27;47.50;;;31.40;;
40951;SDS011;26682;51.660;19.338;2022-10-17T03:24:13;51.17;;;31.38;;
40951;SDS011;26682;51.660;19.338;2022-10-17T03:26:03;44.85;;;28.77;;
40951;SDS011;26682;51.660;19.338;2022-10-17T03:27:51;44.05;;;28.63;;
40951;SDS011;26682;51.660;19.338;2022-10-17T03:29:37;43.60;;;26.67;;
40951;SDS011;26682;51.660;19.338;2022-10-17T03:31:26;38.63;;;25.58;;
40951;SDS011;26682;51.660;19.338;2022-10-17T03:33:12;33.97;;;25.05;;
40951;SDS011;26682;51.660;19.338;2022-10-17T03:34:57;45.13;;;28.70;;
40951;SDS011;26682;51.660;19.338;2022-10-17T03:36:44;42.25;;;28.23;;
40951;SDS011;26682;51.660;19.338;2022-10-17T03:38:30;39.47;;;29.35;;
40951;SDS011;26682;51.660;19.338;2022-10-17T03:40:16;38.45;;;27.92;;
40951;SDS011;26682;51.660;19.338;2022-10-17T03:42:02;39.90;;;28.90;;
40951;SDS011;26682;51.660;19.338;2022-10-17T03:43:48;41.58;;;28.75;;
40951;SDS011;26682;51.660;19.338;2022-10-17T03:47:22;43.83;;;26.30;;
40951;SDS011;26682;51.660;19.338;2022-10-17T03:49:09;38.45;;;26.02;;
40951;SDS011;26682;51.660;19.338;2022-10-17T03:50:58;41.28;;;30.35;;
40951;SDS011;26682;51.660;19.338;2022-10-17T03:52:51;36.70;;;27.58;;
40951;SDS011;26682;51.660;19.338;2022-10-17T03:54:37;35.72;;;26.65;;
40951;SDS011;26682;51.660;19.338;2022-10-17T03:56:24;33.13;;;27.20;;
40951;SDS011;26682;51.660;19.338;2022-10-17T03:58:23;33.40;;;27.85;;
40951;SDS011;26682;51.660;19.338;2022-10-17T04:00:10;39.23;;;26.83;;
40951;SDS011;26682;51.660;19.338;2022-10-17T04:01:59;35.25;;;26.65;;
40951;SDS011;26682;51.660;19.338;2022-10-17T04:03:54;33.80;;;25.83;;
40951;SDS011;26682;51.660;19.338;2022-10-17T04:05:40;34.40;;;27.15;;
40951;SDS011;26682;51.660;19.338;2022-10-17T04:07:26;33.75;;;28.48;;
40951;SDS011;26682;51.660;19.338;2022-10-17T04:09:13;39.40;;;30.98;;
40951;SDS011;26682;51.660;19.338;2022-10-17T04:11:17;65.55;;;58.72;;
40951;SDS011;26682;51.660;19.338;2022-10-17T04:13:06;51.13;;;42.80;;
40951;SDS011;26682;51.660;19.338;2022-10-17T04:14:52;42.70;;;33.75;;
40951;SDS011;26682;51.660;19.338;2022-10-17T04:16:39;46.55;;;32.92;;
40951;SDS011;26682;51.660;19.338;2022-10-17T04:18:31;42.70;;;37.88;;
40951;SDS011;26682;51.660;19.338;2022-10-17T04:20:17;48.25;;;43.15;;
40951;SDS011;26682;51.660;19.338;2022-10-17T04:22:03;42.33;;;36.05;;
40951;SDS011;26682;51.660;19.338;2022-10-17T04:23:55;38.08;;;32.00;;
40951;SDS011;26682;51.660;19.338;2022-10-17T04:26:03;45.03;;;40.22;;
40951;SDS011;26682;51.660;19.338;2022-10-17T04:27:50;40.92;;;34.10;;
40951;SDS011;26682;51.660;19.338;2022-10-17T04:29:36;41.08;;;32.13;;
40951;SDS011;26682;51.660;19.338;2022-10-17T04:31:30;40.25;;;33.83;;
40951;SDS011;26682;51.660;19.338;2022-10-17T04:33:29;42.58;;;33.08;;
40951;SDS011;26682;51.660;19.338;2022-10-17T04:35:15;46.58;;;38.00;;
40951;SDS011;26682;51.660;19.338;2022-10-17T04:37:06;52.22;;;38.63;;
40951;SDS011;26682;51.660;19.338;2022-10-17T04:38:53;47.83;;;37.45;;
40951;SDS011;26682;51.660;19.338;2022-10-17T04:40:39;50.22;;;42.42;;
40951;SDS011;26682;51.660;19.338;2022-10-17T04:42:27;42.35;;;33.05;;
40951;SDS011;26682;51.660;19.338;2022-10-17T04:46:07;38.75;;;33.15;;
40951;SDS011;26682;51.660;19.338;2022-10-17T04:47:56;38.35;;;32.60;;
40951;SDS011;26682;51.660;19.338;2022-10-17T04:49:41;44.28;;;33.72;;
40951;SDS011;26682;51.660;19.338;2022-10-17T04:51:29;38.88;;;33.45;;
40951;SDS011;26682;51.660;19.338;2022-10-17T04:53:42;36.90;;;29.95;;
40951;SDS011;26682;51.660;19.338;2022-10-17T04:55:29;37.55;;;31.02;;
40951;SDS011;26682;51.660;19.338;2022-10-17T04:57:15;38.83;;;32.05;;
40951;SDS011;26682;51.660;19.338;2022-10-17T04:59:10;34.78;;;31.00;;
40951;SDS011;26682;51.660;19.338;2022-10-17T05:02:48;37.38;;;31.23;;
40951;SDS011;26682;51.660;19.338;2022-10-17T05:04:34;33.85;;;29.27;;
40951;SDS011;26682;51.660;19.338;2022-10-17T05:06:22;37.03;;;28.90;;
40951;SDS011;26682;51.660;19.338;2022-10-17T05:08:45;36.70;;;27.85;;
40951;SDS011;26682;51.660;19.338;2022-10-17T05:10:38;34.10;;;30.13;;
40951;SDS011;26682;51.660;19.338;2022-10-17T05:12:26;31.83;;;28.35;;
40951;SDS011;26682;51.660;19.338;2022-10-17T05:14:12;32.40;;;25.58;;
40951;SDS011;26682;51.660;19.338;2022-10-17T05:16:00;36.25;;;24.08;;
40951;SDS011;26682;51.660;19.338;2022-10-17T05:17:46;38.58;;;25.85;;
40951;SDS011;26682;51.660;19.338;2022-10-17T05:19:32;36.13;;;28.13;;
40951;SDS011;26682;51.660;19.338;2022-10-17T05:21:18;39.33;;;32.00;;
40951;SDS011;26682;51.660;19.338;2022-10-17T05:24:57;41.55;;;30.65;;
40951;SDS011;26682;51.660;19.338;2022-10-17T05:26:44;40.75;;;28.30;;
40951;SDS011;26682;51.660;19.338;2022-10-17T05:28:30;39.35;;;29.10;;
40951;SDS011;26682;51.660;19.338;2022-10-17T05:30:19;42.47;;;34.22;;
40951;SDS011;26682;51.660;19.338;2022-10-17T05:32:07;46.80;;;33.97;;
40951;SDS011;26682;51.660;19.338;2022-10-17T05:33:54;49.37;;;29.60;;
40951;SDS011;26682;51.660;19.338;2022-10-17T05:35:41;45.75;;;25.65;;
40951;SDS011;26682;51.660;19.338;2022-10-17T05:37:27;46.78;;;27.42;;
40951;SDS011;26682;51.660;19.338;2022-10-17T05:39:15;41.65;;;26.55;;
40951;SDS011;26682;51.660;19.338;2022-10-17T05:41:04;39.10;;;25.83;;
40951;SDS011;26682;51.660;19.338;2022-10-17T05:42:51;37.25;;;25.70;;
40951;SDS011;26682;51.660;19.338;2022-10-17T05:44:38;35.55;;;22.65;;
40951;SDS011;26682;51.660;19.338;2022-10-17T05:48:12;32.37;;;25.00;;
40951;SDS011;26682;51.660;19.338;2022-10-17T05:49:58;31.23;;;22.33;;
40951;SDS011;26682;51.660;19.338;2022-10-17T05:51:51;33.35;;;23.40;;
40951;SDS011;26682;51.660;19.338;2022-10-17T05:53:38;37.50;;;23.90;;
40951;SDS011;26682;51.660;19.338;2022-10-17T05:55:28;36.28;;;21.85;;
40951;SDS011;26682;51.660;19.338;2022-10-17T05:57:16;28.08;;;20.30;;
40951;SDS011;26682;51.660;19.338;2022-10-17T05:59:03;31.27;;;22.20;;
40951;SDS011;26682;51.660;19.338;2022-10-17T06:01:03;27.83;;;20.20;;
40951;SDS011;26682;51.660;19.338;2022-10-17T06:02:50;34.00;;;20.23;;
40951;SDS011;26682;51.660;19.338;2022-10-17T06:04:38;26.20;;;19.02;;
40951;SDS011;26682;51.660;19.338;2022-10-17T06:06:30;24.42;;;18.10;;
40951;SDS011;26682;51.660;19.338;2022-10-17T06:08:15;26.52;;;17.95;;
40951;SDS011;26682;51.660;19.338;2022-10-17T06:10:02;20.60;;;17.27;;
40951;SDS011;26682;51.660;19.338;2022-10-17T06:11:48;20.13;;;16.92;;
40951;SDS011;26682;51.660;19.338;2022-10-17T06:13:34;26.90;;;17.42;;
40951;SDS011;26682;51.660;19.338;2022-10-17T06:15:27;22.17;;;16.83;;
40951;SDS011;26682;51.660;19.338;2022-10-17T06:17:19;23.55;;;17.13;;
40951;SDS011;26682;51.660;19.338;2022-10-17T06:19:05;19.75;;;16.88;;
40951;SDS011;26682;51.660;19.338;2022-10-17T06:20:51;23.15;;;17.15;;
40951;SDS011;26682;51.660;19.338;2022-10-17T06:22:38;23.60;;;17.27;;
40951;SDS011;26682;51.660;19.338;2022-10-17T06:24:30;19.30;;;16.75;;
40951;SDS011;26682;51.660;19.338;2022-10-17T06:26:16;19.35;;;16.70;;
40951;SDS011;26682;51.660;19.338;2022-10-17T06:28:03;21.92;;;16.58;;
40951;SDS011;26682;51.660;19.338;2022-10-17T06:29:49;24.75;;;18.13;;
40951;SDS011;26682;51.660;19.338;2022-10-17T06:31:37;29.25;;;16.88;;
40951;SDS011;26682;51.660;19.338;2022-10-17T06:33:23;34.05;;;19.83;;
40951;SDS011;26682;51.660;19.338;2022-10-17T06:35:09;27.05;;;18.25;;
40951;SDS011;26682;51.660;19.338;2022-10-17T06:36:55;25.83;;;17.73;;
40951;SDS011;26682;51.660;19.338;2022-10-17T06:38:42;22.10;;;16.80;;
40951;SDS011;26682;51.660;19.338;2022-10-17T06:40:37;24.35;;;15.98;;
40951;SDS011;26682;51.660;19.338;2022-10-17T06:42:23;25.55;;;17.73;;
40951;SDS011;26682;51.660;19.338;2022-10-17T06:44:22;23.77;;;15.63;;
40951;SDS011;26682;51.660;19.338;2022-10-17T06:46:31;21.50;;;14.65;;
40951;SDS011;26682;51.660;19.338;2022-10-17T06:48:23;22.75;;;15.90;;
40951;SDS011;26682;51.660;19.338;2022-10-17T06:50:24;27.75;;;18.98;;
40951;SDS011;26682;51.660;19.338;2022-10-17T06:52:25;25.27;;;19.08;;
40951;SDS011;26682;51.660;19.338;2022-10-17T06:54:30;27.58;;;19.30;;
40951;SDS011;26682;51.660;19.338;2022-10-17T06:56:46;28.13;;;20.02;;
40951;SDS011;26682;51.660;19.338;2022-10-17T06:58:50;20.90;;;16.08;;
40951;SDS011;26682;51.660;19.338;2022-10-17T07:01:05;27.98;;;18.05;;
40951;SDS011;26682;51.660;19.338;2022-10-17T07:02:53;27.05;;;15.88;;
40951;SDS011;26682;51.660;19.338;2022-10-17T07:04:39;25.90;;;16.67;;
40951;SDS011;26682;51.660;19.338;2022-10-17T07:06:25;25.08;;;15.93;;
40951;SDS011;26682;51.660;19.338;2022-10-17T07:08:14;18.60;;;13.65;;
40951;SDS011;26682;51.660;19.338;2022-10-17T07:10:01;18.17;;;15.38;;
40951;SDS011;26682;51.660;19.338;2022-10-17T07:11:48;18.58;;;15.43;;
40951;SDS011;26682;51.660;19.338;2022-10-17T07:13:36;22.92;;;14.82;;
40951;SDS011;26682;51.660;19.338;2022-10-17T07:15:22;21.27;;;15.85;;
40951;SDS011;26682;51.660;19.338;2022-10-17T07:17:08;21.25;;;16.30;;
40951;SDS011;26682;51.660;19.338;2022-10-17T07:18:55;23.08;;;14.05;;
40951;SDS011;26682;51.660;19.338;2022-10-17T07:20:41;17.15;;;13.45;;
40951;SDS011;26682;51.660;19.338;2022-10-17T07:22:27;21.92;;;14.73;;
40951;SDS011;26682;51.660;19.338;2022-10-17T07:24:16;20.08;;;15.60;;
40951;SDS011;26682;51.660;19.338;2022-10-17T07:26:07;24.40;;;16.95;;
40951;SDS011;26682;51.660;19.338;2022-10-17T07:27:57;19.27;;;14.93;;
40951;SDS011;26682;51.660;19.338;2022-10-17T07:29:43;17.77;;;15.02;;
40951;SDS011;26682;51.660;19.338;2022-10-17T07:31:36;22.95;;;15.13;;
40951;SDS011;26682;51.660;19.338;2022-10-17T07:33:22;16.92;;;14.38;;
40951;SDS011;26682;51.660;19.338;2022-10-17T07:35:08;18.90;;;14.18;;
40951;SDS011;26682;51.660;19.338;2022-10-17T07:36:55;20.90;;;16.35;;
40951;SDS011;26682;51.660;19.338;2022-10-17T07:38:42;20.60;;;16.98;;
40951;SDS011;26682;51.660;19.338;2022-10-17T07:40:28;25.30;;;15.20;;
40951;SDS011;26682;51.660;19.338;2022-10-17T07:42:14;16.63;;;13.55;;
40951;SDS011;26682;51.660;19.338;2022-10-17T07:44:00;17.15;;;13.23;;
40951;SDS011;26682;51.660;19.338;2022-10-17T07:45:52;15.98;;;13.75;;
40951;SDS011;26682;51.660;19.338;2022-10-17T07:47:38;18.23;;;14.10;;
40951;SDS011;26682;51.660;19.338;2022-10-17T07:49:27;16.60;;;14.90;;
40951;SDS011;26682;51.660;19.338;2022-10-17T07:51:13;17.70;;;14.25;;
40951;SDS011;26682;51.660;19.338;2022-10-17T07:52:59;20.98;;;14.02;;
40951;SDS011;26682;51.660;19.338;2022-10-17T07:54:45;24.15;;;15.57;;
40951;SDS011;26682;51.660;19.338;2022-10-17T07:56:31;20.33;;;15.52;;
40951;SDS011;26682;51.660;19.338;2022-10-17T07:58:17;19.35;;;12.52;;
40951;SDS011;26682;51.660;19.338;2022-10-17T08:00:03;18.17;;;13.63;;
40951;SDS011;26682;51.660;19.338;2022-10-17T08:01:57;18.38;;;14.10;;
40951;SDS011;26682;51.660;19.338;2022-10-17T08:03:44;18.40;;;13.98;;
40951;SDS011;26682;51.660;19.338;2022-10-17T08:05:31;14.27;;;12.68;;
40951;SDS011;26682;51.660;19.338;2022-10-17T08:07:18;19.85;;;13.57;;
40951;SDS011;26682;51.660;19.338;2022-10-17T08:09:05;16.70;;;13.37;;
40951;SDS011;26682;51.660;19.338;2022-10-17T08:10:51;19.05;;;12.93;;
40951;SDS011;26682;51.660;19.338;2022-10-17T08:12:39;16.10;;;12.82;;
40951;SDS011;26682;51.660;19.338;2022-10-17T08:14:25;15.25;;;13.13;;
40951;SDS011;26682;51.660;19.338;2022-10-17T08:16:11;16.83;;;13.82;;
40951;SDS011;26682;51.660;19.338;2022-10-17T08:17:58;17.80;;;13.90;;
40951;SDS011;26682;51.660;19.338;2022-10-17T08:19:44;16.63;;;13.10;;
40951;SDS011;26682;51.660;19.338;2022-10-17T08:21:30;16.45;;;13.55;;
40951;SDS011;26682;51.660;19.338;2022-10-17T08:23:16;17.88;;;12.32;;
40951;SDS011;26682;51.660;19.338;2022-10-17T08:25:02;17.13;;;13.50;;
40951;SDS011;26682;51.660;19.338;2022-10-17T08:26:48;19.00;;;13.32;;
40951;SDS011;26682;51.660;19.338;2022-10-17T08:28:35;16.98;;;14.07;;
40951;SDS011;26682;51.660;19.338;2022-10-17T08:30:21;14.45;;;12.95;;
40951;SDS011;26682;51.660;19.338;2022-10-17T08:32:07;19.30;;;13.80;;
40951;SDS011;26682;51.660;19.338;2022-10-17T08:33:54;16.88;;;12.85;;
40951;SDS011;26682;51.660;19.338;2022-10-17T08:35:40;16.27;;;13.25;;
40951;SDS011;26682;51.660;19.338;2022-10-17T08:37:26;16.92;;;12.85;;
40951;SDS011;26682;51.660;19.338;2022-10-17T08:39:12;17.33;;;13.63;;
40951;SDS011;26682;51.660;19.338;2022-10-17T08:40:59;16.85;;;13.10;;
40951;SDS011;26682;51.660;19.338;2022-10-17T08:42:58;16.67;;;13.07;;
40951;SDS011;26682;51.660;19.338;2022-10-17T08:47:03;15.40;;;13.13;;
40951;SDS011;26682;51.660;19.338;2022-10-17T08:48:53;15.25;;;13.43;;
40951;SDS011;26682;51.660;19.338;2022-10-17T08:50:41;17.08;;;13.05;;
40951;SDS011;26682;51.660;19.338;2022-10-17T08:53:23;18.17;;;13.32;;
40951;SDS011;26682;51.660;19.338;2022-10-17T08:54:50;20.65;;;13.52;;
40951;SDS011;26682;51.660;19.338;2022-10-17T08:56:44;15.98;;;13.45;;
40951;SDS011;26682;51.660;19.338;2022-10-17T09:00:21;16.75;;;12.85;;
40951;SDS011;26682;51.660;19.338;2022-10-17T09:02:19;20.58;;;13.32;;
40951;SDS011;26682;51.660;19.338;2022-10-17T09:06:25;15.57;;;12.93;;
40951;SDS011;26682;51.660;19.338;2022-10-17T09:10:14;15.77;;;12.20;;
40951;SDS011;26682;51.660;19.338;2022-10-17T09:18:25;14.43;;;12.93;;
40951;SDS011;26682;51.660;19.338;2022-10-17T09:20:19;16.60;;;12.52;;
40951;SDS011;26682;51.660;19.338;2022-10-17T09:22:10;17.58;;;12.88;;
40951;SDS011;26682;51.660;19.338;2022-10-17T09:24:03;21.73;;;13.55;;
40951;SDS011;26682;51.660;19.338;2022-10-17T09:25:59;21.40;;;12.73;;
40951;SDS011;26682;51.660;19.338;2022-10-17T09:27:47;15.00;;;12.88;;
40951;SDS011;26682;51.660;19.338;2022-10-17T09:29:39;15.93;;;13.02;;
40951;SDS011;26682;51.660;19.338;2022-10-17T09:31:29;15.20;;;13.48;;
40951;SDS011;26682;51.660;19.338;2022-10-17T09:33:23;16.27;;;13.30;;
40951;SDS011;26682;51.660;19.338;2022-10-17T09:35:13;14.57;;;13.02;;
40951;SDS011;26682;51.660;19.338;2022-10-17T09:36:59;22.33;;;13.77;;
40951;SDS011;26682;51.660;19.338;2022-10-17T09:38:51;18.33;;;14.27;;
40951;SDS011;26682;51.660;19.338;2022-10-17T09:40:42;20.75;;;14.98;;
40951;SDS011;26682;51.660;19.338;2022-10-17T09:44:36;51.22;;;16.00;;
40951;SDS011;26682;51.660;19.338;2022-10-17T09:46:37;19.08;;;13.00;;
40951;SDS011;26682;51.660;19.338;2022-10-17T09:48:25;17.00;;;13.93;;
40951;SDS011;26682;51.660;19.338;2022-10-17T09:50:36;29.90;;;16.02;;
40951;SDS011;26682;51.660;19.338;2022-10-17T09:52:27;20.80;;;15.07;;
40951;SDS011;26682;51.660;19.338;2022-10-17T09:54:24;25.23;;;16.48;;
40951;SDS011;26682;51.660;19.338;2022-10-17T09:56:17;25.60;;;17.42;;
40951;SDS011;26682;51.660;19.338;2022-10-17T09:58:04;25.55;;;15.65;;
40951;SDS011;26682;51.660;19.338;2022-10-17T10:01:45;23.23;;;16.50;;
40951;SDS011;26682;51.660;19.338;2022-10-17T10:03:31;26.73;;;17.75;;
40951;SDS011;26682;51.660;19.338;2022-10-17T10:05:18;21.52;;;15.90;;
40951;SDS011;26682;51.660;19.338;2022-10-17T10:07:05;20.85;;;15.27;;
40951;SDS011;26682;51.660;19.338;2022-10-17T10:08:56;18.45;;;14.18;;
40951;SDS011;26682;51.660;19.338;2022-10-17T10:10:43;23.65;;;14.20;;
40951;SDS011;26682;51.660;19.338;2022-10-17T10:12:30;23.38;;;13.93;;
40951;SDS011;26682;51.660;19.338;2022-10-17T10:14:22;15.10;;;13.10;;
40951;SDS011;26682;51.660;19.338;2022-10-17T10:16:29;17.30;;;13.05;;
40951;SDS011;26682;51.660;19.338;2022-10-17T10:22:20;19.70;;;12.65;;
40951;SDS011;26682;51.660;19.338;2022-10-17T10:24:13;16.75;;;12.80;;
40951;SDS011;26682;51.660;19.338;2022-10-17T10:26:03;24.60;;;14.43;;
40951;SDS011;26682;51.660;19.338;2022-10-17T10:27:59;17.27;;;13.02;;
40951;SDS011;26682;51.660;19.338;2022-10-17T10:29:49;17.27;;;13.82;;
40951;SDS011;26682;51.660;19.338;2022-10-17T10:31:37;21.80;;;13.93;;
40951;SDS011;26682;51.660;19.338;2022-10-17T10:33:25;25.83;;;16.27;;
40951;SDS011;26682;51.660;19.338;2022-10-17T10:35:20;14.85;;;12.60;;
40951;SDS011;26682;51.660;19.338;2022-10-17T10:37:17;17.88;;;12.48;;
40951;SDS011;26682;51.660;19.338;2022-10-17T10:39:07;15.77;;;12.48;;
40951;SDS011;26682;51.660;19.338;2022-10-17T10:41:12;17.23;;;12.43;;
40951;SDS011;26682;51.660;19.338;2022-10-17T10:42:59;17.33;;;12.15;;
40951;SDS011;26682;51.660;19.338;2022-10-17T10:44:45;22.77;;;13.10;;
40951;SDS011;26682;51.660;19.338;2022-10-17T10:46:33;17.05;;;13.93;;
40951;SDS011;26682;51.660;19.338;2022-10-17T10:50:17;18.35;;;13.13;;
40951;SDS011;26682;51.660;19.338;2022-10-17T10:52:06;17.30;;;12.60;;
40951;SDS011;26682;51.660;19.338;2022-10-17T10:58:19;19.45;;;11.05;;
40951;SDS011;26682;51.660;19.338;2022-10-17T11:00:11;15.75;;;12.23;;
40951;SDS011;26682;51.660;19.338;2022-10-17T11:02:02;19.55;;;12.88;;
40951;SDS011;26682;51.660;19.338;2022-10-17T11:03:55;19.00;;;11.93;;
40951;SDS011;26682;51.660;19.338;2022-10-17T11:05:56;15.30;;;11.55;;
40951;SDS011;26682;51.660;19.338;2022-10-17T11:07:52;14.38;;;11.65;;
40951;SDS011;26682;51.660;19.338;2022-10-17T11:10:04;13.10;;;11.68;;
40951;SDS011;26682;51.660;19.338;2022-10-17T11:11:58;15.48;;;11.85;;
40951;SDS011;26682;51.660;19.338;2022-10-17T11:16:43;14.45;;;12.90;;
40951;SDS011;26682;51.660;19.338;2022-10-17T11:18:41;20.77;;;12.15;;
40951;SDS011;26682;51.660;19.338;2022-10-17T11:22:20;14.13;;;11.27;;
40951;SDS011;26682;51.660;19.338;2022-10-17T11:26:06;13.35;;;11.88;;
40951;SDS011;26682;51.660;19.338;2022-10-17T11:27:57;15.98;;;11.65;;
40951;SDS011;26682;51.660;19.338;2022-10-17T11:29:44;16.23;;;11.82;;
40951;SDS011;26682;51.660;19.338;2022-10-17T11:31:30;16.42;;;11.70;;
40951;SDS011;26682;51.660;19.338;2022-10-17T11:33:49;16.02;;;11.98;;
40951;SDS011;26682;51.660;19.338;2022-10-17T11:35:36;13.30;;;11.02;;
40951;SDS011;26682;51.660;19.338;2022-10-17T11:37:31;16.00;;;11.93;;
40951;SDS011;26682;51.660;19.338;2022-10-17T11:39:26;14.82;;;11.75;;
40951;SDS011;26682;51.660;19.338;2022-10-17T11:43:18;16.50;;;11.55;;
40951;SDS011;26682;51.660;19.338;2022-10-17T11:45:28;14.60;;;11.73;;
40951;SDS011;26682;51.660;19.338;2022-10-17T11:49:35;17.88;;;11.70;;
40951;SDS011;26682;51.660;19.338;2022-10-17T11:51:24;17.42;;;11.65;;